Time,TemperatureF,DewpointF,PressureIn,WindDirection,WindDirectionDegrees,WindSpeedMPH,WindSpeedGustMPH,Humidity,HourlyPrecipIn,Conditions,Clouds,dailyrainin,SoftwareType,DateUTC
2013-08-20 00:01:00,63.4,61.0,30.07,NNE,25,0.0,0.0,92,0.00,,,0.00,weatherlink.com 1.10,2013-08-20 04:01:00,
2013-08-20 00:16:00,63.0,61.0,30.07,NNE,25,0.0,0.0,92,0.00,,,0.00,weatherlink.com 1.10,2013-08-20 04:16:00,
2013-08-20 00:30:00,62.7,60.0,30.07,NNE,25,0.0,0.0,92,0.00,,,0.00,weatherlink.com 1.10,2013-08-20 04:30:00,
2013-08-20 00:45:00,62.5,60.0,30.07,NNE,25,0.0,1.0,93,0.00,,,0.00,weatherlink.com 1.10,2013-08-20 04:45:00,
2013-08-20 00:59:00,62.1,60.0,30.07,NNE,25,0.0,1.0,92,0.00,,,0.00,weatherlink.com 1.10,2013-08-20 04:59:00,
2013-08-20 01:15:00,61.8,60.0,30.07,NNE,25,0.0,0.0,93,0.00,,,0.00,weatherlink.com 1.10,2013-08-20 05:15:00,
2013-08-20 01:31:00,61.7,60.0,30.07,NNE,25,0.0,0.0,93,0.00,,,0.00,weatherlink.com 1.10,2013-08-20 05:31:00,
2013-08-20 01:47:00,61.3,59.0,30.07,NNE,25,0.0,0.0,93,0.00,,,0.00,weatherlink.com 1.10,2013-08-20 05:47:00,
2013-08-20 02:04:00,60.8,59.0,30.07,NNE,25,0.0,0.0,94,0.00,,,0.00,weatherlink.com 1.10,2013-08-20 06:04:00,
2013-08-20 02:20:00,60.7,59.0,30.07,NNE,25,0.0,1.0,95,0.00,,,0.00,weatherlink.com 1.10,2013-08-20 06:20:00,
2013-08-20 02:36:00,60.6,59.0,30.07,NNE,25,0.0,0.0,95,0.00,,,0.00,weatherlink.com 1.10,2013-08-20 06:36:00,
2013-08-20 02:52:00,60.6,59.0,30.07,NNE,25,0.0,0.0,95,0.00,,,0.00,weatherlink.com 1.10,2013-08-20 06:52:00,
2013-08-20 03:08:00,60.3,59.0,30.08,NNE,24,0.0,0.0,94,0.00,,,0.00,weatherlink.com 1.10,2013-08-20 07:08:00,
2013-08-20 03:25:00,60.1,59.0,30.09,NNE,25,0.0,0.0,95,0.00,,,0.00,weatherlink.com 1.10,2013-08-20 07:25:00,
2013-08-20 03:41:00,59.8,59.0,30.08,NNE,25,0.0,0.0,96,0.00,,,0.00,weatherlink.com 1.10,2013-08-20 07:41:00,
2013-08-20 03:57:00,59.6,58.0,30.08,NNE,25,0.0,0.0,96,0.00,,,0.00,weatherlink.com 1.10,2013-08-20 07:57:00,
2013-08-20 04:13:00,59.9,59.0,30.08,NNE,25,0.0,0.0,96,0.00,,,0.00,weatherlink.com 1.10,2013-08-20 08:13:00,
2013-08-20 04:30:00,59.8,58.0,30.09,NNE,25,0.0,1.0,95,0.00,,,0.00,weatherlink.com 1.10,2013-08-20 08:30:00,
2013-08-20 04:46:00,59.6,58.0,30.09,NNE,25,0.0,0.0,95,0.00,,,0.00,weatherlink.com 1.10,2013-08-20 08:46:00,
2013-08-20 05:04:00,59.3,58.0,30.09,NNE,26,0.0,1.0,95,0.00,,,0.00,weatherlink.com 1.10,2013-08-20 09:04:00,
2013-08-20 05:19:00,59.2,58.0,30.10,NNE,26,0.0,1.0,95,0.00,,,0.00,weatherlink.com 1.10,2013-08-20 09:19:00,
2013-08-20 05:33:00,59.1,58.0,30.10,NNE,26,0.0,1.0,96,0.00,,,0.00,weatherlink.com 1.10,2013-08-20 09:33:00,
2013-08-20 05:47:00,59.2,58.0,30.10,NE,51,0.0,0.0,96,0.00,,,0.00,weatherlink.com 1.10,2013-08-20 09:47:00,
2013-08-20 06:02:00,59.3,58.0,30.10,ESE,103,1.0,0.0,95,0.00,,,0.00,weatherlink.com 1.10,2013-08-20 10:02:00,
2013-08-20 06:17:00,59.2,58.0,30.11,ESE,103,0.0,1.0,95,0.00,,,0.00,weatherlink.com 1.10,2013-08-20 10:17:00,
2013-08-20 06:31:00,59.2,58.0,30.11,ESE,103,0.0,1.0,96,0.00,,,0.00,weatherlink.com 1.10,2013-08-20 10:31:00,
2013-08-20 06:45:00,59.2,58.0,30.12,ESE,103,0.0,0.0,96,0.00,,,0.00,weatherlink.com 1.10,2013-08-20 10:45:00,
2013-08-20 07:00:00,59.2,58.0,30.12,ESE,103,0.0,0.0,95,0.00,,,0.00,weatherlink.com 1.10,2013-08-20 11:00:00,
2013-08-20 07:16:00,59.5,58.0,30.12,ESE,103,0.0,0.0,95,0.00,,,0.00,weatherlink.com 1.10,2013-08-20 11:16:00,
2013-08-20 07:32:00,59.9,58.0,30.13,ESE,103,0.0,0.0,95,0.00,,,0.00,weatherlink.com 1.10,2013-08-20 11:32:00,
2013-08-20 07:48:00,60.4,59.0,30.14,ESE,103,0.0,0.0,95,0.00,,,0.00,weatherlink.com 1.10,2013-08-20 11:48:00,
2013-08-20 08:05:00,61.6,60.0,30.14,ESE,103,0.0,0.0,94,0.00,,,0.00,weatherlink.com 1.10,2013-08-20 12:05:00,
2013-08-20 08:21:00,62.8,61.0,30.14,ESE,103,0.0,0.0,93,0.00,,,0.00,weatherlink.com 1.10,2013-08-20 12:21:00,
2013-08-20 08:39:00,64.8,62.0,30.14,ESE,103,0.0,0.0,90,0.00,,,0.00,weatherlink.com 1.10,2013-08-20 12:39:00,
2013-08-20 08:55:00,67.6,63.0,30.15,ESE,103,0.0,0.0,84,0.00,,,0.00,weatherlink.com 1.10,2013-08-20 12:55:00,
2013-08-20 09:11:00,69.9,64.0,30.15,ESE,103,0.0,0.0,82,0.00,,,0.00,weatherlink.com 1.10,2013-08-20 13:11:00,
2013-08-20 09:26:00,71.3,65.0,30.14,ESE,103,0.0,1.0,80,0.00,,,0.00,weatherlink.com 1.10,2013-08-20 13:26:00,
2013-08-20 09:40:00,72.4,64.0,30.14,SSW,212,1.0,4.0,74,0.00,,,0.00,weatherlink.com 1.10,2013-08-20 13:40:00,
2013-08-20 09:55:00,73.7,64.0,30.15,NW,316,1.0,4.0,71,0.00,,,0.00,weatherlink.com 1.10,2013-08-20 13:55:00,
2013-08-20 10:09:00,74.4,63.0,30.14,West,265,2.0,3.0,68,0.00,,,0.00,weatherlink.com 1.10,2013-08-20 14:09:00,
2013-08-20 10:24:00,75.4,64.0,30.14,West,266,1.0,4.0,68,0.00,,,0.00,weatherlink.com 1.10,2013-08-20 14:24:00,
2013-08-20 10:38:00,76.1,64.0,30.14,WSW,237,0.0,4.0,67,0.00,,,0.00,weatherlink.com 1.10,2013-08-20 14:38:00,
2013-08-20 10:53:00,76.7,64.0,30.14,West,259,1.0,5.0,65,0.00,,,0.00,weatherlink.com 1.10,2013-08-20 14:53:00,
2013-08-20 11:08:00,77.6,65.0,30.14,North,8,2.0,7.0,65,0.00,,,0.00,weatherlink.com 1.10,2013-08-20 15:08:00,
2013-08-20 11:26:00,78.0,65.0,30.14,WSW,252,1.0,5.0,64,0.00,,,0.00,weatherlink.com 1.10,2013-08-20 15:26:00,
2013-08-20 11:42:00,78.6,65.0,30.14,WSW,257,2.0,3.0,64,0.00,,,0.00,weatherlink.com 1.10,2013-08-20 15:42:00,
2013-08-20 11:58:00,78.8,66.0,30.14,WNW,302,0.0,6.0,66,0.00,,,0.00,weatherlink.com 1.10,2013-08-20 15:58:00,
2013-08-20 12:15:00,79.7,64.0,30.14,WSW,238,1.0,5.0,58,0.00,,,0.00,weatherlink.com 1.10,2013-08-20 16:15:00,
2013-08-20 12:31:00,80.5,65.0,30.14,WNW,286,3.0,5.0,59,0.00,,,0.00,weatherlink.com 1.10,2013-08-20 16:31:00,
2013-08-20 12:47:00,81.1,65.0,30.14,WNW,284,0.0,4.0,58,0.00,,,0.00,weatherlink.com 1.10,2013-08-20 16:47:00,
2013-08-20 13:03:00,81.2,63.0,30.14,WSW,250,3.0,5.0,54,0.00,,,0.00,weatherlink.com 1.10,2013-08-20 17:03:00,
2013-08-20 13:18:00,81.6,63.0,30.14,West,275,3.0,5.0,53,0.00,,,0.00,weatherlink.com 1.10,2013-08-20 17:18:00,
2013-08-20 13:32:00,81.6,63.0,30.13,NW,315,2.0,5.0,54,0.00,,,0.00,weatherlink.com 1.10,2013-08-20 17:32:00,
2013-08-20 13:46:00,81.6,61.0,30.13,WSW,241,6.0,8.0,50,0.00,,,0.00,weatherlink.com 1.10,2013-08-20 17:46:00,
2013-08-20 14:01:00,81.9,61.0,30.13,NW,309,0.0,6.0,50,0.00,,,0.00,weatherlink.com 1.10,2013-08-20 18:01:00,
2013-08-20 14:17:00,82.4,64.0,30.13,WNW,288,3.0,10.0,53,0.00,,,0.00,weatherlink.com 1.10,2013-08-20 18:17:00,
2013-08-20 14:33:00,82.8,63.0,30.13,NE,39,0.0,5.0,51,0.00,,,0.00,weatherlink.com 1.10,2013-08-20 18:33:00,
2013-08-20 14:49:00,82.6,62.0,30.13,NW,325,2.0,7.0,50,0.00,,,0.00,weatherlink.com 1.10,2013-08-20 18:49:00,
2013-08-20 15:05:00,83.2,63.0,30.12,WNW,289,0.0,6.0,50,0.00,,,0.00,weatherlink.com 1.10,2013-08-20 19:05:00,
2013-08-20 15:20:00,83.7,64.0,30.12,WSW,248,2.0,4.0,52,0.00,,,0.00,weatherlink.com 1.10,2013-08-20 19:20:00,
2013-08-20 15:34:00,82.4,64.0,30.12,WNW,297,2.0,9.0,53,0.00,,,0.00,weatherlink.com 1.10,2013-08-20 19:34:00,
2013-08-20 15:48:00,83.2,65.0,30.12,SW,224,4.0,5.0,54,0.00,,,0.00,weatherlink.com 1.10,2013-08-20 19:48:00,
2013-08-20 16:03:00,83.5,60.0,30.12,NW,314,1.0,6.0,45,0.00,,,0.00,weatherlink.com 1.10,2013-08-20 20:03:00,
2013-08-20 16:18:00,84.2,62.0,30.12,WNW,295,2.0,5.0,47,0.00,,,0.00,weatherlink.com 1.10,2013-08-20 20:18:00,
2013-08-20 16:32:00,83.5,60.0,30.11,NW,321,1.0,8.0,45,0.00,,,0.00,weatherlink.com 1.10,2013-08-20 20:32:00,
2013-08-20 16:47:00,83.4,62.0,30.11,West,276,2.0,8.0,49,0.00,,,0.00,weatherlink.com 1.10,2013-08-20 20:47:00,
2013-08-20 17:01:00,83.2,60.0,30.11,West,272,1.0,10.0,45,0.00,,,0.00,weatherlink.com 1.10,2013-08-20 21:01:00,
2013-08-20 17:17:00,82.9,62.0,30.11,West,260,0.0,3.0,49,0.00,,,0.00,weatherlink.com 1.10,2013-08-20 21:17:00,
2013-08-20 17:34:00,83.0,60.0,30.11,NW,310,0.0,4.0,46,0.00,,,0.00,weatherlink.com 1.10,2013-08-20 21:34:00,
2013-08-20 17:50:00,82.2,62.0,30.11,West,269,1.0,6.0,51,0.00,,,0.00,weatherlink.com 1.10,2013-08-20 21:50:00,
2013-08-20 18:06:00,81.9,61.0,30.11,NNW,330,0.0,4.0,49,0.00,,,0.00,weatherlink.com 1.10,2013-08-20 22:06:00,
2013-08-20 18:22:00,80.8,64.0,30.11,West,266,0.0,4.0,56,0.00,,,0.00,weatherlink.com 1.10,2013-08-20 22:22:00,
2013-08-20 18:38:00,79.9,63.0,30.11,West,266,1.0,3.0,56,0.00,,,0.00,weatherlink.com 1.10,2013-08-20 22:38:00,
2013-08-20 18:56:00,79.1,62.0,30.11,WSW,255,0.0,2.0,56,0.00,,,0.00,weatherlink.com 1.10,2013-08-20 22:56:00,
2013-08-20 19:14:00,79.0,64.0,30.11,ENE,75,0.0,0.0,61,0.00,,,0.00,weatherlink.com 1.10,2013-08-20 23:14:00,
2013-08-20 19:28:00,77.7,65.0,30.11,ENE,75,0.0,0.0,64,0.00,,,0.00,weatherlink.com 1.10,2013-08-20 23:28:00,
2013-08-20 19:42:00,76.1,64.0,30.11,ENE,75,0.0,0.0,67,0.00,,,0.00,weatherlink.com 1.10,2013-08-20 23:42:00,
2013-08-20 19:57:00,74.7,64.0,30.11,ENE,75,0.0,0.0,69,0.00,,,0.00,weatherlink.com 1.10,2013-08-20 23:57:00,
2013-08-20 20:13:00,73.2,64.0,30.11,ENE,75,0.0,0.0,74,0.00,,,0.00,weatherlink.com 1.10,2013-08-21 00:13:00,
2013-08-20 20:29:00,72.0,64.0,30.12,ENE,75,0.0,0.0,76,0.00,,,0.00,weatherlink.com 1.10,2013-08-21 00:29:00,
2013-08-20 20:45:00,70.9,64.0,30.12,ENE,75,0.0,0.0,79,0.00,,,0.00,weatherlink.com 1.10,2013-08-21 00:45:00,
2013-08-20 21:02:00,69.9,64.0,30.13,ENE,75,0.0,0.0,82,0.00,,,0.00,weatherlink.com 1.10,2013-08-21 01:02:00,
2013-08-20 21:18:00,69.4,65.0,30.13,ENE,75,0.0,0.0,85,0.00,,,0.00,weatherlink.com 1.10,2013-08-21 01:18:00,
2013-08-20 21:35:00,68.8,64.0,30.14,ENE,75,0.0,0.0,85,0.00,,,0.00,weatherlink.com 1.10,2013-08-21 01:35:00,
2013-08-20 21:51:00,68.3,64.0,30.14,ENE,75,0.0,0.0,87,0.00,,,0.00,weatherlink.com 1.10,2013-08-21 01:51:00,
2013-08-20 22:06:00,68.0,65.0,30.14,ENE,75,0.0,0.0,89,0.00,,,0.00,weatherlink.com 1.10,2013-08-21 02:06:00,
2013-08-20 22:21:00,67.6,64.0,30.14,ENE,75,0.0,0.0,89,0.00,,,0.00,weatherlink.com 1.10,2013-08-21 02:21:00,
2013-08-20 22:35:00,67.5,64.0,30.14,ENE,75,0.0,0.0,88,0.00,,,0.00,weatherlink.com 1.10,2013-08-21 02:35:00,
2013-08-20 22:49:00,67.0,64.0,30.14,ENE,75,0.0,0.0,89,0.00,,,0.00,weatherlink.com 1.10,2013-08-21 02:49:00,
2013-08-20 23:04:00,66.4,63.0,30.14,ENE,75,0.0,0.0,90,0.00,,,0.00,weatherlink.com 1.10,2013-08-21 03:04:00,
2013-08-20 23:20:00,65.9,63.0,30.14,ENE,75,0.0,0.0,90,0.00,,,0.00,weatherlink.com 1.10,2013-08-21 03:20:00,
2013-08-20 23:37:00,65.4,62.0,30.14,ENE,75,0.0,0.0,90,0.00,,,0.00,weatherlink.com 1.10,2013-08-21 03:37:00,
2013-08-20 23:54:00,64.9,62.0,30.15,ENE,75,0.0,0.0,91,0.00,,,0.00,weatherlink.com 1.10,2013-08-21 03:54:00,